الصفحة الرئيسية
METAR-TAF:

METAR-TAF

مطار :

أولان باتور, منغوليا

مطار جنكيز خان الدولي

دائرة عرض: 47-55N, خط طول: 106-52E, ارتفاع: 1306 متر

مراقبة الطقس الحالي

تاريخ ووقت الإصدار 15 دقيقة قبل الساعة 07:00UTC
رياح هادئة
درجة الحرارة -14°درجة مئوية
الرطوبة 51%
ضغط 1015 hPa
الرؤية 10 كم أو أكثر
غيوم مفككة على ارتفاع 25000 قدم

METAR: ZMUB 190700Z 00000MPS 9999 BKN250 M14/M22 Q1015 NOSIG RMK QFE654.3 45 MOP

زمن: 15:15 (07:15 UTC)

توقعات

تاريخ ووقت الإصدار 2ساعات و 35 دقيقة قبل الساعة 04:40UTC
التوقعات صالحة من19 الساعة 06 UTC إلى 20 الساعة 12 UTC
ريح 4 عقدةمن اتجاهات متغيرة
الرؤية 10 كم أو أكثر
غيوم متفرقة على ارتفاع 10000 قدم
أصبح
من 19 الساعة 18 UTC إلى 19 الساعة 20 UTC
الرؤية: 6000 متر
أصبح
من 19 الساعة 23 UTC إلى 20 الساعة 01 UTC
الرؤية: 4000 متر
دخان
أصبح
من 20 الساعة 05 UTC إلى 20 الساعة 07 UTC
الرؤية: 6000 متر

TAF: ZMUB 190440Z 1906/2012 VRB02MPS 9999 SCT100 TXM16/1907Z TNM31/1922Z BECMG 1918/1920 6000 BECMG 1923/2001 4000 FU BECMG 2005/2007 6000

أرصاد الطقس والتوقعات من أكثر من 4000 مطار (تقارير الطقس للمطار METAR والتنبؤ بالطقس بالمطارTAF).

المحطات المتاحة هي النقط الصفراء والحمراء على الخريطة.

حرك المؤشر فوق النقطة لمعرفة اسم المحطة.

ثم انقر لمعرفة أرصاد وتوقعات الطقس.

لتغيير الخارطة: اضغط على الأزرار الخضراء مع رمز الصليب الأسود للتكبير. على الزر الأخضر مع شرطة للتصغير، أو على الأسهم الخضراء للخرائط المجاورة.


METAR-TAF: